sensor_id;sensor_type;location;lat;lon;timestamp;pressure;altitude;pressure_sealevel;temperature
48854;BMP280;34673;52.808;17.856;2023-08-21T00:02:15;100951.34;;;22.67
48854;BMP280;34673;52.808;17.856;2023-08-21T00:04:42;100956.63;;;22.67
48854;BMP280;34673;52.808;17.856;2023-08-21T00:07:09;100958.63;;;22.62
48854;BMP280;34673;52.808;17.856;2023-08-21T00:09:38;100954.28;;;22.61
48854;BMP280;34673;52.808;17.856;2023-08-21T00:12:05;100955.22;;;22.60
48854;BMP280;34673;52.808;17.856;2023-08-21T00:14:33;100953.63;;;22.55
48854;BMP280;34673;52.808;17.856;2023-08-21T00:17:01;100941.53;;;22.51
48854;BMP280;34673;52.808;17.856;2023-08-21T00:19:30;100948.25;;;22.59
48854;BMP280;34673;52.808;17.856;2023-08-21T00:21:57;100946.50;;;22.57
48854;BMP280;34673;52.808;17.856;2023-08-21T00:24:24;100953.38;;;22.62
48854;BMP280;34673;52.808;17.856;2023-08-21T00:26:52;100942.97;;;22.59
48854;BMP280;34673;52.808;17.856;2023-08-21T00:29:19;100941.38;;;22.54
48854;BMP280;34673;52.808;17.856;2023-08-21T00:31:46;100924.16;;;22.47
48854;BMP280;34673;52.808;17.856;2023-08-21T00:34:13;100941.69;;;22.48
48854;BMP280;34673;52.808;17.856;2023-08-21T00:36:41;100935.63;;;22.46
48854;BMP280;34673;52.808;17.856;2023-08-21T00:39:08;100940.91;;;22.46
48854;BMP280;34673;52.808;17.856;2023-08-21T00:41:35;100941.84;;;22.45
48854;BMP280;34673;52.808;17.856;2023-08-21T00:44:03;100933.16;;;22.43
48854;BMP280;34673;52.808;17.856;2023-08-21T00:46:31;100940.28;;;22.41
48854;BMP280;34673;52.808;17.856;2023-08-21T00:48:59;100940.28;;;22.41
48854;BMP280;34673;52.808;17.856;2023-08-21T00:51:26;100911.25;;;22.24
48854;BMP280;34673;52.808;17.856;2023-08-21T00:53:54;100942.28;;;22.36
48854;BMP280;34673;52.808;17.856;2023-08-21T00:56:21;100952.41;;;22.26
48854;BMP280;34673;52.808;17.856;2023-08-21T00:58:48;100954.69;;;22.15
48854;BMP280;34673;52.808;17.856;2023-08-21T01:01:17;100960.94;;;22.12
48854;BMP280;34673;52.808;17.856;2023-08-21T01:03:46;100962.59;;;22.15
48854;BMP280;34673;52.808;17.856;2023-08-21T01:06:13;100966.75;;;22.21
48854;BMP280;34673;52.808;17.856;2023-08-21T01:09:08;100958.03;;;22.19
48854;BMP280;34673;52.808;17.856;2023-08-21T01:12:01;100968.22;;;22.26
48854;BMP280;34673;52.808;17.856;2023-08-21T01:14:39;100964.88;;;22.23
48854;BMP280;34673;52.808;17.856;2023-08-21T01:17:11;100947.75;;;22.12
48854;BMP280;34673;52.808;17.856;2023-08-21T01:19:44;100969.88;;;22.29
48854;BMP280;34673;52.808;17.856;2023-08-21T01:22:13;100957.53;;;22.29
48854;BMP280;34673;52.808;17.856;2023-08-21T01:24:40;100967.16;;;22.30
48854;BMP280;34673;52.808;17.856;2023-08-21T01:27:08;100968.22;;;22.26
48854;BMP280;34673;52.808;17.856;2023-08-21T01:29:36;100960.53;;;22.22
48854;BMP280;34673;52.808;17.856;2023-08-21T01:32:08;100968.09;;;22.29
48854;BMP280;34673;52.808;17.856;2023-08-21T01:34:37;100972.34;;;22.32
48854;BMP280;34673;52.808;17.856;2023-08-21T01:37:07;100970.63;;;22.31
48854;BMP280;34673;52.808;17.856;2023-08-21T01:39:35;100963.66;;;22.30
48854;BMP280;34673;52.808;17.856;2023-08-21T01:42:02;100968.09;;;22.29
48854;BMP280;34673;52.808;17.856;2023-08-21T01:44:31;100956.97;;;22.23
48854;BMP280;34673;52.808;17.856;2023-08-21T01:47:01;100964.66;;;22.27
48854;BMP280;34673;52.808;17.856;2023-08-21T01:49:28;100964.88;;;22.23
48854;BMP280;34673;52.808;17.856;2023-08-21T01:51:55;100966.22;;;22.12
48854;BMP280;34673;52.808;17.856;2023-08-21T01:54:24;100961.09;;;22.09
48854;BMP280;34673;52.808;17.856;2023-08-21T01:56:51;100964.78;;;22.05
48854;BMP280;34673;52.808;17.856;2023-08-21T01:59:19;100930.56;;;21.85
48854;BMP280;34673;52.808;17.856;2023-08-21T02:01:47;100955.44;;;21.98
48854;BMP280;34673;52.808;17.856;2023-08-21T02:04:14;100948.41;;;21.99
48854;BMP280;34673;52.808;17.856;2023-08-21T02:06:41;100945.97;;;21.94
48854;BMP280;34673;52.808;17.856;2023-08-21T02:09:08;100942.56;;;21.92
48854;BMP280;34673;52.808;17.856;2023-08-21T02:11:35;100927.31;;;21.80
48854;BMP280;34673;52.808;17.856;2023-08-21T02:14:02;100942.84;;;21.86
48854;BMP280;34673;52.808;17.856;2023-08-21T02:16:30;100952.38;;;21.88
48854;BMP280;34673;52.808;17.856;2023-08-21T02:18:57;100948.09;;;21.86
48854;BMP280;34673;52.808;17.856;2023-08-21T02:21:24;100947.59;;;21.78
48854;BMP280;34673;52.808;17.856;2023-08-21T02:23:52;100958.13;;;21.78
48854;BMP280;34673;52.808;17.856;2023-08-21T02:26:19;100962.88;;;21.69
48854;BMP280;34673;52.808;17.856;2023-08-21T02:28:47;100955.13;;;21.66
48854;BMP280;34673;52.808;17.856;2023-08-21T02:31:14;100955.03;;;21.68
48854;BMP280;34673;52.808;17.856;2023-08-21T02:33:41;100940.25;;;21.65
48854;BMP280;34673;52.808;17.856;2023-08-21T02:36:08;100945.50;;;21.65
48854;BMP280;34673;52.808;17.856;2023-08-21T02:38:35;100923.69;;;21.63
48854;BMP280;34673;52.808;17.856;2023-08-21T02:41:03;100904.09;;;21.50
48854;BMP280;34673;52.808;17.856;2023-08-21T02:43:30;100930.00;;;21.59
48854;BMP280;34673;52.808;17.856;2023-08-21T02:45:57;100937.94;;;21.58
48854;BMP280;34673;52.808;17.856;2023-08-21T02:48:24;100937.22;;;21.54
48854;BMP280;34673;52.808;17.856;2023-08-21T02:50:53;100936.59;;;21.49
48854;BMP280;34673;52.808;17.856;2023-08-21T02:53:20;100943.34;;;21.55
48854;BMP280;34673;52.808;17.856;2023-08-21T02:55:47;100944.22;;;21.55
48854;BMP280;34673;52.808;17.856;2023-08-21T02:58:14;100936.72;;;21.46
48854;BMP280;34673;52.808;17.856;2023-08-21T03:00:42;100949.69;;;21.51
48854;BMP280;34673;52.808;17.856;2023-08-21T03:03:09;100942.78;;;21.48
48854;BMP280;34673;52.808;17.856;2023-08-21T03:05:38;100926.78;;;21.32
48854;BMP280;34673;52.808;17.856;2023-08-21T03:08:06;100951.09;;;21.39
48854;BMP280;34673;52.808;17.856;2023-08-21T03:10:33;100953.94;;;21.33
48854;BMP280;34673;52.808;17.856;2023-08-21T03:13:01;100948.94;;;21.27
48854;BMP280;34673;52.808;17.856;2023-08-21T03:15:28;100953.81;;;21.15
48854;BMP280;34673;52.808;17.856;2023-08-21T03:17:55;100968.53;;;21.19
48854;BMP280;34673;52.808;17.856;2023-08-21T03:20:23;100972.94;;;21.19
48854;BMP280;34673;52.808;17.856;2023-08-21T03:22:50;100977.50;;;21.15
48854;BMP280;34673;52.808;17.856;2023-08-21T03:25:17;100979.47;;;21.10
48854;BMP280;34673;52.808;17.856;2023-08-21T03:27:45;100988.50;;;21.03
48854;BMP280;34673;52.808;17.856;2023-08-21T03:30:16;100971.44;;;20.93
48854;BMP280;34673;52.808;17.856;2023-08-21T03:32:44;100993.25;;;20.95
48854;BMP280;34673;52.808;17.856;2023-08-21T03:35:11;101001.25;;;20.92
48854;BMP280;34673;52.808;17.856;2023-08-21T03:37:41;100994.44;;;20.88
48854;BMP280;34673;52.808;17.856;2023-08-21T03:40:12;100977.31;;;20.77
48854;BMP280;34673;52.808;17.856;2023-08-21T03:42:40;100994.56;;;20.85
48854;BMP280;34673;52.808;17.856;2023-08-21T03:45:07;101000.03;;;20.78
48854;BMP280;34673;52.808;17.856;2023-08-21T03:47:35;100993.06;;;20.77
48854;BMP280;34673;52.808;17.856;2023-08-21T03:50:09;100997.63;;;20.74
48854;BMP280;34673;52.808;17.856;2023-08-21T03:52:36;100977.78;;;20.65
48854;BMP280;34673;52.808;17.856;2023-08-21T03:55:04;100986.34;;;20.70
48854;BMP280;34673;52.808;17.856;2023-08-21T03:57:31;100993.34;;;20.71
48854;BMP280;34673;52.808;17.856;2023-08-21T03:59:58;100988.78;;;20.75
48854;BMP280;34673;52.808;17.856;2023-08-21T04:02:26;100991.59;;;20.70
48854;BMP280;34673;52.808;17.856;2023-08-21T04:04:53;100984.78;;;20.66
48854;BMP280;34673;52.808;17.856;2023-08-21T04:07:20;100984.78;;;20.66
48854;BMP280;34673;52.808;17.856;2023-08-21T04:09:47;100981.34;;;20.64
48854;BMP280;34673;52.808;17.856;2023-08-21T04:12:14;100982.94;;;20.68
48854;BMP280;34673;52.808;17.856;2023-08-21T04:14:42;100986.47;;;20.67
48854;BMP280;34673;52.808;17.856;2023-08-21T04:17:09;100987.53;;;20.63
48854;BMP280;34673;52.808;17.856;2023-08-21T04:19:37;100985.00;;;20.60
48854;BMP280;34673;52.808;17.856;2023-08-21T04:22:04;100977.22;;;20.57
48854;BMP280;34673;52.808;17.856;2023-08-21T04:24:31;100976.22;;;20.61
48854;BMP280;34673;52.808;17.856;2023-08-21T04:26:58;100976.09;;;20.64
48854;BMP280;34673;52.808;17.856;2023-08-21T04:29:25;100958.91;;;20.55
48854;BMP280;34673;52.808;17.856;2023-08-21T04:31:53;100984.66;;;20.69
48854;BMP280;34673;52.808;17.856;2023-08-21T04:34:20;100976.63;;;20.72
48854;BMP280;34673;52.808;17.856;2023-08-21T04:36:47;100980.19;;;20.71
48854;BMP280;34673;52.808;17.856;2023-08-21T04:39:16;100979.25;;;20.72
48854;BMP280;34673;52.808;17.856;2023-08-21T04:41:44;100975.69;;;20.73
48854;BMP280;34673;52.808;17.856;2023-08-21T04:44:12;100985.38;;;20.73
48854;BMP280;34673;52.808;17.856;2023-08-21T04:46:39;100976.94;;;20.65
48854;BMP280;34673;52.808;17.856;2023-08-21T04:49:06;100993.56;;;20.65
48854;BMP280;34673;52.808;17.856;2023-08-21T04:51:34;100995.28;;;20.66
48854;BMP280;34673;52.808;17.856;2023-08-21T04:54:02;100988.19;;;20.68
48854;BMP280;34673;52.808;17.856;2023-08-21T04:56:30;100991.84;;;20.64
48854;BMP280;34673;52.808;17.856;2023-08-21T04:58:57;100997.84;;;20.68
48854;BMP280;34673;52.808;17.856;2023-08-21T05:01:27;100996.00;;;20.70
48854;BMP280;34673;52.808;17.856;2023-08-21T05:03:56;101000.16;;;20.75
48854;BMP280;34673;52.808;17.856;2023-08-21T05:06:24;101000.03;;;20.78
48854;BMP280;34673;52.808;17.856;2023-08-21T05:08:51;101003.22;;;20.87
48854;BMP280;34673;52.808;17.856;2023-08-21T05:11:18;100999.56;;;20.91
48854;BMP280;34673;52.808;17.856;2023-08-21T05:13:45;101003.84;;;20.93
48854;BMP280;34673;52.808;17.856;2023-08-21T05:16:14;101011.50;;;20.98
48854;BMP280;34673;52.808;17.856;2023-08-21T05:18:42;100992.34;;;20.96
48854;BMP280;34673;52.808;17.856;2023-08-21T05:21:09;101004.28;;;21.03
48854;BMP280;34673;52.808;17.856;2023-08-21T05:23:36;101012.00;;;21.08
48854;BMP280;34673;52.808;17.856;2023-08-21T05:26:06;101009.44;;;21.06
48854;BMP280;34673;52.808;17.856;2023-08-21T05:28:33;101013.72;;;21.09
48854;BMP280;34673;52.808;17.856;2023-08-21T05:31:00;101019.84;;;21.09
48854;BMP280;34673;52.808;17.856;2023-08-21T05:33:38;101014.47;;;21.12
48854;BMP280;34673;52.808;17.856;2023-08-21T05:36:06;101017.00;;;21.14
48854;BMP280;34673;52.808;17.856;2023-08-21T05:38:33;101021.28;;;21.16
48854;BMP280;34673;52.808;17.856;2023-08-21T05:41:00;101019.59;;;21.15
48854;BMP280;34673;52.808;17.856;2023-08-21T05:43:27;101029.84;;;21.21
48854;BMP280;34673;52.808;17.856;2023-08-21T05:45:56;101004.16;;;21.06
48854;BMP280;34673;52.808;17.856;2023-08-21T05:48:23;101026.06;;;21.29
48854;BMP280;34673;52.808;17.856;2023-08-21T05:50:51;101026.28;;;21.22
48854;BMP280;34673;52.808;17.856;2023-08-21T05:53:19;101022.50;;;21.30
48854;BMP280;34673;52.808;17.856;2023-08-21T05:55:46;101014.41;;;21.34
48854;BMP280;34673;52.808;17.856;2023-08-21T05:58:14;101026.31;;;21.44
48854;BMP280;34673;52.808;17.856;2023-08-21T06:00:42;101025.09;;;21.52
48854;BMP280;34673;52.808;17.856;2023-08-21T06:03:11;101019.50;;;21.59
48854;BMP280;34673;52.808;17.856;2023-08-21T06:06:10;101007.13;;;21.61
48854;BMP280;34673;52.808;17.856;2023-08-21T06:08:39;101011.09;;;21.72
48854;BMP280;34673;52.808;17.856;2023-08-21T06:11:06;101002.78;;;21.81
48854;BMP280;34673;52.808;17.856;2023-08-21T06:13:33;100998.44;;;21.80
48854;BMP280;34673;52.808;17.856;2023-08-21T06:16:01;101005.91;;;21.89
48854;BMP280;34673;52.808;17.856;2023-08-21T06:18:29;101022.94;;;22.01
48854;BMP280;34673;52.808;17.856;2023-08-21T06:20:57;101035.47;;;22.14
48854;BMP280;34673;52.808;17.856;2023-08-21T06:23:24;101034.13;;;22.26
48854;BMP280;34673;52.808;17.856;2023-08-21T06:25:51;101029.41;;;22.33
48854;BMP280;34673;52.808;17.856;2023-08-21T06:28:21;101026.38;;;22.42
48854;BMP280;34673;52.808;17.856;2023-08-21T06:30:55;101035.25;;;22.59
48854;BMP280;34673;52.808;17.856;2023-08-21T06:33:23;101042.72;;;22.68
48854;BMP280;34673;52.808;17.856;2023-08-21T06:35:50;101028.75;;;22.66
48854;BMP280;34673;52.808;17.856;2023-08-21T06:38:17;101037.16;;;22.74
48854;BMP280;34673;52.808;17.856;2023-08-21T06:40:45;101036.56;;;22.86
48854;BMP280;34673;52.808;17.856;2023-08-21T06:43:13;101044.69;;;23.00
48854;BMP280;34673;52.808;17.856;2023-08-21T06:45:45;101032.28;;;23.03
48854;BMP280;34673;52.808;17.856;2023-08-21T06:48:13;101042.84;;;23.20
48854;BMP280;34673;52.808;17.856;2023-08-21T06:50:41;101038.03;;;23.28
48854;BMP280;34673;52.808;17.856;2023-08-21T06:53:08;101039.28;;;23.38
48854;BMP280;34673;52.808;17.856;2023-08-21T06:55:35;101041.31;;;23.51
48854;BMP280;34673;52.808;17.856;2023-08-21T06:58:03;101033.69;;;23.62
48854;BMP280;34673;52.808;17.856;2023-08-21T07:00:30;101040.28;;;23.71
48854;BMP280;34673;52.808;17.856;2023-08-21T07:02:57;101028.25;;;23.82
48854;BMP280;34673;52.808;17.856;2023-08-21T07:05:25;101034.69;;;23.94
48854;BMP280;34673;52.808;17.856;2023-08-21T07:07:52;101037.50;;;24.07
48854;BMP280;34673;52.808;17.856;2023-08-21T07:10:21;101037.34;;;24.10
48854;BMP280;34673;52.808;17.856;2023-08-21T07:12:48;101042.16;;;24.19
48854;BMP280;34673;52.808;17.856;2023-08-21T07:15:15;101045.72;;;24.34
48854;BMP280;34673;52.808;17.856;2023-08-21T07:17:43;101049.38;;;24.49
48854;BMP280;34673;52.808;17.856;2023-08-21T07:20:10;101049.38;;;24.65
48854;BMP280;34673;52.808;17.856;2023-08-21T07:22:38;101048.44;;;24.82
48854;BMP280;34673;52.808;17.856;2023-08-21T07:25:06;101044.88;;;24.97
48854;BMP280;34673;52.808;17.856;2023-08-21T07:27:33;101043.34;;;25.09
48854;BMP280;34673;52.808;17.856;2023-08-21T07:30:00;101048.97;;;25.18
48854;BMP280;34673;52.808;17.856;2023-08-21T07:32:27;101055.63;;;25.26
48854;BMP280;34673;52.808;17.856;2023-08-21T07:34:55;101041.28;;;25.30
48854;BMP280;34673;52.808;17.856;2023-08-21T07:37:22;101050.56;;;25.51
48854;BMP280;34673;52.808;17.856;2023-08-21T07:39:49;101051.00;;;25.74
48854;BMP280;34673;52.808;17.856;2023-08-21T07:42:16;101038.34;;;25.79
48854;BMP280;34673;52.808;17.856;2023-08-21T07:44:44;101022.72;;;25.74
48854;BMP280;34673;52.808;17.856;2023-08-21T07:47:12;101036.28;;;25.98
48854;BMP280;34673;52.808;17.856;2023-08-21T07:49:40;101038.56;;;26.04
48854;BMP280;34673;52.808;17.856;2023-08-21T07:52:07;101025.28;;;26.19
48854;BMP280;34673;52.808;17.856;2023-08-21T07:54:34;101037.19;;;26.40
48854;BMP280;34673;52.808;17.856;2023-08-21T07:57:01;101036.44;;;26.52
48854;BMP280;34673;52.808;17.856;2023-08-21T07:59:30;101036.81;;;26.61
48854;BMP280;34673;52.808;17.856;2023-08-21T08:01:58;101034.72;;;26.66
48854;BMP280;34673;52.808;17.856;2023-08-21T08:04:27;101031.66;;;26.72
48854;BMP280;34673;52.808;17.856;2023-08-21T08:06:55;101037.09;;;26.83
48854;BMP280;34673;52.808;17.856;2023-08-21T08:09:22;101036.31;;;26.95
48854;BMP280;34673;52.808;17.856;2023-08-21T08:11:49;101032.69;;;26.96
48854;BMP280;34673;52.808;17.856;2023-08-21T08:14:16;101015.91;;;26.96
48854;BMP280;34673;52.808;17.856;2023-08-21T08:16:44;101024.66;;;27.11
48854;BMP280;34673;52.808;17.856;2023-08-21T08:19:11;101026.31;;;27.26
48854;BMP280;34673;52.808;17.856;2023-08-21T08:21:38;101016.25;;;27.31
48854;BMP280;34673;52.808;17.856;2023-08-21T08:24:05;101029.22;;;27.49
48854;BMP280;34673;52.808;17.856;2023-08-21T08:26:33;101031.34;;;27.44
48854;BMP280;34673;52.808;17.856;2023-08-21T08:29:00;101033.25;;;27.42
48854;BMP280;34673;52.808;17.856;2023-08-21T08:31:27;101035.38;;;27.36
48854;BMP280;34673;52.808;17.856;2023-08-21T08:33:54;101032.94;;;27.46
48854;BMP280;34673;52.808;17.856;2023-08-21T08:36:22;101038.81;;;27.64
48854;BMP280;34673;52.808;17.856;2023-08-21T08:38:49;101039.34;;;27.69
48854;BMP280;34673;52.808;17.856;2023-08-21T08:41:30;101034.75;;;27.71
48854;BMP280;34673;52.808;17.856;2023-08-21T08:44:01;101030.72;;;27.78
48854;BMP280;34673;52.808;17.856;2023-08-21T08:46:29;101029.91;;;27.91
48854;BMP280;34673;52.808;17.856;2023-08-21T08:48:58;101035.41;;;28.00
48854;BMP280;34673;52.808;17.856;2023-08-21T08:51:29;101015.94;;;28.00
48854;BMP280;34673;52.808;17.856;2023-08-21T08:53:58;101033.72;;;28.12
48854;BMP280;34673;52.808;17.856;2023-08-21T08:56:26;101031.75;;;28.14
48854;BMP280;34673;52.808;17.856;2023-08-21T08:58:53;101029.84;;;28.16
48854;BMP280;34673;52.808;17.856;2023-08-21T09:01:20;101015.81;;;28.14
48854;BMP280;34673;52.808;17.856;2023-08-21T09:03:48;101032.16;;;28.34
48854;BMP280;34673;52.808;17.856;2023-08-21T09:06:17;101024.47;;;28.42
48854;BMP280;34673;52.808;17.856;2023-08-21T09:08:54;101028.94;;;28.54
48854;BMP280;34673;52.808;17.856;2023-08-21T09:11:22;101038.91;;;28.63
48854;BMP280;34673;52.808;17.856;2023-08-21T09:13:50;101024.88;;;28.61
48854;BMP280;34673;52.808;17.856;2023-08-21T09:16:18;101030.34;;;28.71
48854;BMP280;34673;52.808;17.856;2023-08-21T09:18:47;101022.41;;;28.82
48854;BMP280;34673;52.808;17.856;2023-08-21T09:21:22;101026.91;;;28.82
48854;BMP280;34673;52.808;17.856;2023-08-21T09:23:56;101017.56;;;28.76
48854;BMP280;34673;52.808;17.856;2023-08-21T09:26:24;101011.66;;;28.84
48854;BMP280;34673;52.808;17.856;2023-08-21T09:28:52;101015.13;;;28.97
48854;BMP280;34673;52.808;17.856;2023-08-21T09:31:23;101019.28;;;29.12
48854;BMP280;34673;52.808;17.856;2023-08-21T09:33:58;101014.25;;;29.21
48854;BMP280;34673;52.808;17.856;2023-08-21T09:36:27;101014.28;;;29.32
48854;BMP280;34673;52.808;17.856;2023-08-21T09:38:55;101009.31;;;29.38
48854;BMP280;34673;52.808;17.856;2023-08-21T09:41:23;101008.00;;;29.44
48854;BMP280;34673;52.808;17.856;2023-08-21T09:43:51;101007.50;;;29.50
48854;BMP280;34673;52.808;17.856;2023-08-21T09:46:25;101009.84;;;29.55
48854;BMP280;34673;52.808;17.856;2023-08-21T09:48:53;101006.22;;;29.56
48854;BMP280;34673;52.808;17.856;2023-08-21T09:51:21;101003.69;;;29.66
48854;BMP280;34673;52.808;17.856;2023-08-21T09:53:48;101000.09;;;29.78
48854;BMP280;34673;52.808;17.856;2023-08-21T09:56:19;100994.50;;;29.81
48854;BMP280;34673;52.808;17.856;2023-08-21T09:58:50;101003.59;;;29.90
48854;BMP280;34673;52.808;17.856;2023-08-21T10:01:21;101003.22;;;29.94
48854;BMP280;34673;52.808;17.856;2023-08-21T10:03:48;101003.72;;;29.99
48854;BMP280;34673;52.808;17.856;2023-08-21T10:06:17;101002.84;;;29.88
48854;BMP280;34673;52.808;17.856;2023-08-21T10:08:52;101003.22;;;29.94
48854;BMP280;34673;52.808;17.856;2023-08-21T10:11:20;101001.50;;;30.04
48854;BMP280;34673;52.808;17.856;2023-08-21T10:13:48;100996.41;;;30.13
48854;BMP280;34673;52.808;17.856;2023-08-21T10:16:19;100980.41;;;30.01
48854;BMP280;34673;52.808;17.856;2023-08-21T10:18:49;101002.00;;;30.10
48854;BMP280;34673;52.808;17.856;2023-08-21T10:21:20;101008.31;;;30.09
48854;BMP280;34673;52.808;17.856;2023-08-21T10:23:51;100998.84;;;30.16
48854;BMP280;34673;52.808;17.856;2023-08-21T10:26:20;100997.28;;;30.24
48854;BMP280;34673;52.808;17.856;2023-08-21T10:29:01;100993.63;;;30.25
48854;BMP280;34673;52.808;17.856;2023-08-21T10:31:31;100993.75;;;30.35
48854;BMP280;34673;52.808;17.856;2023-08-21T10:34:00;100991.31;;;30.43
48854;BMP280;34673;52.808;17.856;2023-08-21T10:39:27;100996.31;;;30.69
48854;BMP280;34673;52.808;17.856;2023-08-21T10:44:46;100993.91;;;30.66
48854;BMP280;34673;52.808;17.856;2023-08-21T10:47:33;100996.78;;;30.74
48854;BMP280;34673;52.808;17.856;2023-08-21T10:50:06;100993.16;;;30.64
48854;BMP280;34673;52.808;17.856;2023-08-21T10:52:39;100998.69;;;30.51
48854;BMP280;34673;52.808;17.856;2023-08-21T10:55:09;100994.34;;;30.16
48854;BMP280;34673;52.808;17.856;2023-08-21T10:57:37;101001.03;;;29.88
48854;BMP280;34673;52.808;17.856;2023-08-21T11:00:06;100988.69;;;29.87
48854;BMP280;34673;52.808;17.856;2023-08-21T11:02:41;100990.84;;;29.93
48854;BMP280;34673;52.808;17.856;2023-08-21T11:05:10;100995.81;;;30.09
48854;BMP280;34673;52.808;17.856;2023-08-21T11:10:07;100992.53;;;30.28
48854;BMP280;34673;52.808;17.856;2023-08-21T11:12:48;100998.47;;;30.32
48854;BMP280;34673;52.808;17.856;2023-08-21T11:15:16;100990.34;;;30.33
48854;BMP280;34673;52.808;17.856;2023-08-21T11:18:12;100985.59;;;30.37
48854;BMP280;34673;52.808;17.856;2023-08-21T11:20:40;100984.50;;;30.39
48854;BMP280;34673;52.808;17.856;2023-08-21T11:23:10;100988.16;;;30.38
48854;BMP280;34673;52.808;17.856;2023-08-21T11:25:40;100980.16;;;30.38
48854;BMP280;34673;52.808;17.856;2023-08-21T11:28:08;100962.19;;;30.29
48854;BMP280;34673;52.808;17.856;2023-08-21T11:30:35;100980.38;;;30.46
48854;BMP280;34673;52.808;17.856;2023-08-21T11:33:10;100978.69;;;30.45
48854;BMP280;34673;52.808;17.856;2023-08-21T11:35:38;100969.50;;;30.16
48854;BMP280;34673;52.808;17.856;2023-08-21T11:38:06;100982.84;;;30.16
48854;BMP280;34673;52.808;17.856;2023-08-21T11:40:40;100977.97;;;30.10
48854;BMP280;34673;52.808;17.856;2023-08-21T11:43:07;100964.16;;;30.04
48854;BMP280;34673;52.808;17.856;2023-08-21T11:45:36;100972.38;;;30.13
48854;BMP280;34673;52.808;17.856;2023-08-21T11:48:22;100981.50;;;30.21
48854;BMP280;34673;52.808;17.856;2023-08-21T11:50:50;100961.00;;;30.22
48854;BMP280;34673;52.808;17.856;2023-08-21T11:53:34;100958.44;;;30.20
48854;BMP280;34673;52.808;17.856;2023-08-21T11:56:02;100968.78;;;30.25
48854;BMP280;34673;52.808;17.856;2023-08-21T11:58:29;100967.53;;;30.29
48854;BMP280;34673;52.808;17.856;2023-08-21T12:01:03;100963.66;;;30.33
48854;BMP280;34673;52.808;17.856;2023-08-21T12:03:36;100963.19;;;30.17
48854;BMP280;34673;52.808;17.856;2023-08-21T12:06:08;100963.56;;;30.01
48854;BMP280;34673;52.808;17.856;2023-08-21T12:08:36;100964.31;;;29.92
48854;BMP280;34673;52.808;17.856;2023-08-21T12:11:03;100968.31;;;29.97
48854;BMP280;34673;52.808;17.856;2023-08-21T12:13:30;100962.94;;;30.09
48854;BMP280;34673;52.808;17.856;2023-08-21T12:16:01;100962.44;;;30.15
48854;BMP280;34673;52.808;17.856;2023-08-21T12:18:29;100958.94;;;30.14
48854;BMP280;34673;52.808;17.856;2023-08-21T12:20:57;100947.47;;;29.91
48854;BMP280;34673;52.808;17.856;2023-08-21T12:23:24;100955.34;;;29.70
48854;BMP280;34673;52.808;17.856;2023-08-21T12:25:51;100956.88;;;29.50
48854;BMP280;34673;52.808;17.856;2023-08-21T12:28:19;100955.41;;;29.35
48854;BMP280;34673;52.808;17.856;2023-08-21T12:30:46;100957.09;;;29.36
48854;BMP280;34673;52.808;17.856;2023-08-21T12:33:14;100951.78;;;29.36
48854;BMP280;34673;52.808;17.856;2023-08-21T12:35:50;100954.56;;;29.34
48854;BMP280;34673;52.808;17.856;2023-08-21T12:38:17;100962.19;;;29.39
48854;BMP280;34673;52.808;17.856;2023-08-21T12:40:45;100949.59;;;29.30
48854;BMP280;34673;52.808;17.856;2023-08-21T12:43:12;100945.94;;;29.20
48854;BMP280;34673;52.808;17.856;2023-08-21T12:45:39;100945.69;;;29.23
48854;BMP280;34673;52.808;17.856;2023-08-21T12:48:07;100956.00;;;29.16
48854;BMP280;34673;52.808;17.856;2023-08-21T12:50:35;100956.03;;;29.03
48854;BMP280;34673;52.808;17.856;2023-08-21T12:53:02;100956.28;;;29.00
48854;BMP280;34673;52.808;17.856;2023-08-21T12:55:30;100934.97;;;29.00
48854;BMP280;34673;52.808;17.856;2023-08-21T12:57:57;100941.31;;;29.10
48854;BMP280;34673;52.808;17.856;2023-08-21T13:00:25;100942.28;;;29.09
48854;BMP280;34673;52.808;17.856;2023-08-21T13:02:52;100930.63;;;28.99
48854;BMP280;34673;52.808;17.856;2023-08-21T13:05:20;100930.94;;;28.83
48854;BMP280;34673;52.808;17.856;2023-08-21T13:07:48;100931.28;;;28.79
48854;BMP280;34673;52.808;17.856;2023-08-21T13:10:15;100934.53;;;28.82
48854;BMP280;34673;52.808;17.856;2023-08-21T13:12:42;100934.28;;;28.74
48854;BMP280;34673;52.808;17.856;2023-08-21T13:15:10;100944.31;;;28.70
48854;BMP280;34673;52.808;17.856;2023-08-21T13:17:37;100934.22;;;28.63
48854;BMP280;34673;52.808;17.856;2023-08-21T13:20:05;100938.66;;;28.51
48854;BMP280;34673;52.808;17.856;2023-08-21T13:22:50;100936.88;;;28.39
48854;BMP280;34673;52.808;17.856;2023-08-21T13:25:21;100933.69;;;28.34
48854;BMP280;34673;52.808;17.856;2023-08-21T13:27:50;100925.31;;;28.27
48854;BMP280;34673;52.808;17.856;2023-08-21T13:30:17;100930.25;;;28.20
48854;BMP280;34673;52.808;17.856;2023-08-21T13:32:45;100928.78;;;28.16
48854;BMP280;34673;52.808;17.856;2023-08-21T13:35:12;100919.03;;;28.04
48854;BMP280;34673;52.808;17.856;2023-08-21T13:37:40;100919.22;;;28.01
48854;BMP280;34673;52.808;17.856;2023-08-21T13:40:07;100921.81;;;27.90
48854;BMP280;34673;52.808;17.856;2023-08-21T13:42:43;100920.75;;;27.79
48854;BMP280;34673;52.808;17.856;2023-08-21T13:45:12;100902.09;;;27.55
48854;BMP280;34673;52.808;17.856;2023-08-21T13:47:41;100925.88;;;27.57
48854;BMP280;34673;52.808;17.856;2023-08-21T13:50:10;100915.16;;;27.46
48854;BMP280;34673;52.808;17.856;2023-08-21T13:52:37;100922.81;;;27.37
48854;BMP280;34673;52.808;17.856;2023-08-21T13:55:08;100924.19;;;27.30
48854;BMP280;34673;52.808;17.856;2023-08-21T13:57:38;100919.53;;;27.21
48854;BMP280;34673;52.808;17.856;2023-08-21T14:00:07;100919.94;;;27.15
48854;BMP280;34673;52.808;17.856;2023-08-21T14:02:42;100926.59;;;27.08